Time;durP1;ratioP1;P1;durP2;ratioP2;P2;SDS_P1;SDS_P2;PMS_P1;PMS_P2;Temp;Humidity;BMP_temperature;BMP_pressure;BME280_temperature;BME280_humidity;BME280_pressure;Samples;Min_cycle;Max_cycle;Signal;HPM_P1;HPM_P2
2022/05/06 00:01:08;;;;;;;10.40;4.60;;;;;;;11.37;68.44;102424.19;5075333;28;20032;-78
2022/05/06 00:03:37;;;;;;;9.33;4.77;;;;;;;11.37;68.50;102428.53;5074111;28;20064;-78
2022/05/06 00:06:02;;;;;;;9.32;4.53;;;;;;;11.31;69.01;102428.47;5075053;28;20481;-78
2022/05/06 00:08:28;;;;;;;9.80;4.75;;;;;;;11.28;68.64;102424.97;5075072;28;20431;-78
2022/05/06 00:10:53;;;;;;;13.00;5.60;;;;;;;11.26;68.77;102428.44;5055383;28;20029;-78
2022/05/06 00:13:18;;;;;;;11.17;5.33;;;;;;;11.24;68.73;102420.63;5055283;28;20385;-78
2022/05/06 00:15:44;;;;;;;12.50;5.80;;;;;;;11.22;68.42;102424.94;5054820;28;20040;-78
2022/05/06 00:18:09;;;;;;;13.80;6.10;;;;;;;11.20;68.51;102437.06;5053985;28;20056;-78
2022/05/06 00:20:34;;;;;;;14.93;6.73;;;;;;;11.18;68.68;102432.72;5054945;28;20116;-78
2022/05/06 00:23:00;;;;;;;11.07;5.33;;;;;;;11.16;69.01;102437.00;5054438;28;20029;-78
2022/05/06 00:25:26;;;;;;;11.30;5.65;;;;;;;11.12;68.95;102433.53;5053995;28;20021;-78
2022/05/06 00:27:51;;;;;;;12.97;5.43;;;;;;;11.08;69.19;102437.84;5054571;28;20432;-78
2022/05/06 00:30:16;;;;;;;12.47;5.77;;;;;;;11.06;69.05;102436.06;5065620;28;20046;-78
2022/05/06 00:32:42;;;;;;;12.67;5.83;;;;;;;11.02;69.05;102437.75;5073844;28;20366;-78
2022/05/06 00:35:07;;;;;;;10.83;5.30;;;;;;;10.99;69.10;102434.28;5074700;28;20021;-78
2022/05/06 00:37:36;;;;;;;12.07;6.10;;;;;;;10.97;69.10;102436.88;5074210;28;20495;-78
2022/05/06 00:40:04;;;;;;;14.70;6.75;;;;;;;10.97;69.18;102436.88;5073373;28;20060;-78
2022/05/06 00:42:29;;;;;;;13.73;6.20;;;;;;;10.94;69.21;102442.88;5074628;28;20020;-78
2022/05/06 00:44:54;;;;;;;12.97;6.70;;;;;;;10.90;69.20;102440.25;5074285;28;20031;-78
2022/05/06 00:47:22;;;;;;;13.77;6.77;;;;;;;10.87;69.25;102435.91;5073162;28;20127;-78
2022/05/06 00:49:48;;;;;;;12.93;6.13;;;;;;;10.85;69.67;102434.16;5073498;28;20035;-78
2022/05/06 00:52:16;;;;;;;13.20;6.30;;;;;;;10.81;69.39;102436.72;5074415;28;20024;-78
2022/05/06 00:54:41;;;;;;;15.70;6.97;;;;;;;10.81;69.46;102433.25;5073036;28;20027;-78
2022/05/06 00:57:07;;;;;;;16.17;7.43;;;;;;;10.78;69.57;102431.50;5074216;28;20040;-78
2022/05/06 00:59:32;;;;;;;15.93;7.10;;;;;;;10.77;69.52;102434.94;5073499;28;20027;-78
2022/05/06 01:01:58;;;;;;;15.23;7.40;;;;;;;10.72;69.48;102436.66;5073845;28;20119;-78
2022/05/06 01:04:23;;;;;;;15.90;7.40;;;;;;;10.69;69.54;102430.56;5073734;28;20281;-78
2022/05/06 01:06:49;;;;;;;15.60;6.93;;;;;;;10.64;69.42;102436.56;5072809;28;20021;-78
2022/05/06 01:09:16;;;;;;;14.83;7.37;;;;;;;10.60;69.87;102437.38;5073256;28;20032;-78
2022/05/06 01:11:42;;;;;;;15.02;7.32;;;;;;;10.57;69.93;102439.06;5053742;28;20488;-78
2022/05/06 01:14:08;;;;;;;13.63;6.60;;;;;;;10.55;69.98;102433.00;5053357;28;20025;-78
2022/05/06 01:16:36;;;;;;;15.97;7.40;;;;;;;10.53;69.94;102433.00;5053536;28;20485;-78
2022/05/06 01:19:03;;;;;;;16.05;7.45;;;;;;;10.51;70.14;102434.69;5053768;28;20035;-78
2022/05/06 01:21:34;;;;;;;15.05;6.88;;;;;;;10.47;70.05;102436.38;5053000;28;20021;-78
2022/05/06 01:24:01;;;;;;;16.00;7.07;;;;;;;10.44;70.09;102440.69;5053626;28;20029;-78
2022/05/06 01:26:53;;;;;;;16.10;7.28;;;;;;;10.42;70.29;102438.06;5053812;28;20021;-78
2022/05/06 01:29:21;;;;;;;15.90;7.10;;;;;;;10.39;70.31;102445.81;5052872;28;20016;-78
2022/05/06 01:31:46;;;;;;;17.05;7.55;;;;;;;10.35;70.43;102441.41;5071863;28;20036;-78
2022/05/06 01:34:14;;;;;;;14.97;6.80;;;;;;;10.30;70.33;102435.31;5073684;28;20021;-78
2022/05/06 01:36:40;;;;;;;14.32;6.70;;;;;;;10.28;70.56;102437.00;5072561;28;20038;-78
2022/05/06 01:39:06;;;;;;;15.35;6.97;;;;;;;10.27;70.65;102436.13;5073119;28;20036;-78
2022/05/06 01:41:35;;;;;;;13.37;6.30;;;;;;;10.24;70.80;102443.91;5073501;28;20025;-78
2022/05/06 01:44:04;;;;;;;12.88;5.85;;;;;;;10.23;71.25;102447.34;5072845;28;20039;-78
2022/05/06 01:46:33;;;;;;;9.82;4.80;;;;;;;10.18;71.80;102436.03;5073181;28;20500;-78
2022/05/06 01:49:00;;;;;;;9.77;4.80;;;;;;;10.15;72.43;102446.34;5072379;28;20881;-78
2022/05/06 01:51:27;;;;;;;7.50;3.83;;;;;;;10.12;72.36;102443.75;5056917;28;20104;-78
2022/05/06 01:53:52;;;;;;;5.82;3.35;;;;;;;10.08;72.52;102440.22;5053242;28;20029;-78
2022/05/06 01:56:19;;;;;;;6.30;3.27;;;;;;;10.07;73.05;102442.81;5052089;28;20029;-78
2022/05/06 01:58:44;;;;;;;8.90;4.10;;;;;;;10.02;74.44;102441.00;5052929;28;20055;-78
2022/05/06 02:01:11;;;;;;;7.50;3.97;;;;;;;9.98;73.51;102449.63;5052077;28;20056;-78
2022/05/06 02:06:20;;;;;;;9.35;4.00;;;;;;;9.91;73.46;102440.00;5053348;28;20401;-78
2022/05/06 02:08:46;;;;;;;6.10;3.40;;;;;;;9.91;74.15;102442.59;5052833;28;20013;-78
2022/05/06 02:11:11;;;;;;;6.20;3.43;;;;;;;9.91;73.31;102436.56;5064392;28;20028;-78
2022/05/06 02:13:37;;;;;;;10.07;4.60;;;;;;;9.88;74.82;102445.16;5072554;28;20090;-78
2022/05/06 02:16:03;;;;;;;9.17;4.17;;;;;;;9.87;73.57;102439.09;5072826;28;20024;-78
2022/05/06 02:18:29;;;;;;;9.10;4.27;;;;;;;9.88;75.82;102439.97;5071591;28;20027;-78
2022/05/06 02:20:58;;;;;;;21.97;11.53;;;;;;;9.76;80.54;102442.41;5072099;28;20025;-78
2022/05/06 02:23:24;;;;;;;24.75;13.82;;;;;;;9.61;82.18;102443.06;5072832;28;20017;-78
2022/05/06 02:25:50;;;;;;;30.25;18.88;;;;;;;9.32;86.07;102441.78;5071688;28;20028;-78
2022/05/06 02:28:15;;;;;;;27.23;16.80;;;;;;;9.22;84.63;102443.34;5072845;28;20081;-78
2022/05/06 02:33:26;;;;;;;20.27;10.18;;;;;;;9.25;80.66;102450.28;5053164;28;20059;-78
2022/05/06 02:35:52;;;;;;;18.08;8.43;;;;;;;9.31;81.44;102444.31;5052308;28;20029;-78
2022/05/06 02:38:19;;;;;;;17.50;8.20;;;;;;;9.31;80.65;102444.31;5051795;28;20102;-78
2022/05/06 02:40:44;;;;;;;15.40;6.90;;;;;;;9.33;80.98;102442.63;5069336;28;20565;-78
2022/05/06 02:43:09;;;;;;;22.20;10.30;;;;;;;9.30;84.51;102453.84;5072483;28;20036;-78
2022/05/06 02:45:35;;;;;;;23.93;13.73;;;;;;;9.16;84.99;102450.13;5071927;28;20032;-78
2022/05/06 02:48:01;;;;;;;22.63;11.83;;;;;;;9.12;83.32;102450.06;5072504;28;20024;-78
2022/05/06 02:50:26;;;;;;;18.52;9.35;;;;;;;9.12;83.09;102452.66;5061859;28;20072;-78
2022/05/06 02:52:55;;;;;;;21.47;10.67;;;;;;;9.12;84.04;102455.25;5051526;28;20048;-78
2022/05/06 02:55:24;;;;;;;18.58;8.63;;;;;;;9.15;84.55;102459.66;5052503;28;20055;-78
2022/05/06 02:57:50;;;;;;;21.23;10.85;;;;;;;9.08;84.49;102458.66;5053137;28;20060;-78
2022/05/06 03:00:16;;;;;;;18.83;9.00;;;;;;;9.10;83.27;102458.69;5051785;28;20025;-78
2022/05/06 03:02:42;;;;;;;16.33;7.27;;;;;;;9.12;82.22;102451.81;5052138;28;20032;-78
2022/05/06 03:05:09;;;;;;;15.40;6.77;;;;;;;9.18;81.91;102456.22;5059315;28;20062;-78
2022/05/06 03:07:34;;;;;;;17.05;7.75;;;;;;;9.17;83.14;102454.47;5071574;28;20028;-78
2022/05/06 03:09:59;;;;;;;15.37;6.73;;;;;;;9.19;83.59;102455.38;5072147;28;20040;-78
2022/05/06 03:12:29;;;;;;;12.20;6.00;;;;;;;9.20;81.72;102457.13;5075109;28;20085;-78
2022/05/06 03:14:55;;;;;;;9.85;4.60;;;;;;;9.23;81.75;102452.00;5075342;28;20082;-78
2022/05/06 03:17:20;;;;;;;10.43;4.63;;;;;;;9.24;82.83;102453.72;5076155;28;20123;-78
2022/05/06 03:19:45;;;;;;;8.97;4.23;;;;;;;9.25;81.37;102450.28;5075815;28;20032;-78
2022/05/06 03:22:12;;;;;;;10.07;4.70;;;;;;;9.25;81.65;102445.09;5075147;28;20017;-78
2022/05/06 03:24:38;;;;;;;;;;;;;;;9.24;81.45;102444.25;5072203;28;20032;-77
2022/05/06 03:27:03;;;;;;;11.97;5.20;;;;;;;9.25;80.92;102452.88;5055907;28;19920;-78
2022/05/06 03:29:29;;;;;;;9.43;4.37;;;;;;;9.26;80.90;102445.16;5055027;28;20386;-78
2022/05/06 03:31:56;;;;;;;7.47;4.00;;;;;;;9.26;80.52;102446.84;5055513;28;20029;-78
2022/05/06 03:34:21;;;;;;;5.93;3.13;;;;;;;9.29;81.22;102449.50;5055369;28;20082;-78
2022/05/06 03:36:47;;;;;;;6.10;3.30;;;;;;;9.31;79.76;102449.50;5055711;28;20468;-78
2022/05/06 03:39:13;;;;;;;5.93;3.23;;;;;;;9.31;81.84;102439.16;5055802;28;20033;-78
2022/05/06 03:41:38;;;;;;;7.23;3.60;;;;;;;9.29;81.13;102448.63;5054751;28;20059;-78
2022/05/06 03:44:06;;;;;;;7.70;4.10;;;;;;;9.26;82.23;102452.91;5056195;28;20061;-78
2022/05/06 03:46:31;;;;;;;12.43;5.68;;;;;;;9.25;84.52;102452.88;5075625;28;20051;-78
2022/05/06 03:48:57;;;;;;;10.13;4.73;;;;;;;9.22;81.15;102451.13;5074604;28;20551;-78
2022/05/06 03:51:23;;;;;;;8.50;4.28;;;;;;;9.22;81.25;102452.84;5075367;28;20101;-78
2022/05/06 03:53:52;;;;;;;8.47;3.90;;;;;;;9.25;82.64;102452.88;5075078;28;20032;-78
2022/05/06 03:56:18;;;;;;;7.78;3.95;;;;;;;9.24;82.56;102449.44;5074711;28;20050;-78
2022/05/06 03:58:44;;;;;;;9.18;4.50;;;;;;;9.23;82.15;102450.28;5075236;28;20024;-78
2022/05/06 04:01:10;;;;;;;11.30;5.00;;;;;;;9.23;82.93;102452.00;5075341;28;20095;-78
2022/05/06 04:03:38;;;;;;;8.77;4.30;;;;;;;9.24;81.99;102453.72;5074714;28;20063;-78
2022/05/06 04:06:04;;;;;;;8.13;4.07;;;;;;;9.24;81.51;102464.09;5060641;28;20043;-78
2022/05/06 04:08:30;;;;;;;7.50;3.63;;;;;;;9.25;81.74;102464.13;5055369;28;20047;-78
2022/05/06 04:10:55;;;;;;;6.47;3.57;;;;;;;9.25;80.71;102463.25;5054403;28;20467;-78
2022/05/06 04:13:21;;;;;;;8.45;3.95;;;;;;;9.28;80.63;102463.28;5055065;28;20078;-78
2022/05/06 04:15:46;;;;;;;8.03;3.77;;;;;;;9.31;80.57;102460.75;5054561;28;20024;-78
2022/05/06 04:18:12;;;;;;;5.83;3.47;;;;;;;9.31;81.83;102467.66;5054190;28;20064;-78
2022/05/06 04:23:30;;;;;;;7.60;3.63;;;;;;;9.33;81.38;102460.78;5054339;28;20512;-78
2022/05/06 04:26:06;;;;;;;5.93;3.20;;;;;;;9.36;81.31;102469.47;5067911;28;20024;-78
2022/05/06 04:28:33;;;;;;;4.68;2.80;;;;;;;9.36;80.48;102466.88;5074562;28;20028;-78
2022/05/06 04:30:59;;;;;;;4.13;2.63;;;;;;;9.37;80.87;102468.63;5073720;28;20021;-78
2022/05/06 04:33:25;;;;;;;3.87;2.47;;;;;;;9.37;80.59;102472.94;5069892;28;20036;-78
2022/05/06 04:35:51;;;;;;;3.40;2.38;;;;;;;9.37;80.03;102467.75;5054852;28;20036;-78
2022/05/06 04:38:16;;;;;;;3.65;2.42;;;;;;;9.38;79.38;102466.91;5054080;28;20024;-78
2022/05/06 04:40:42;;;;;;;3.73;2.57;;;;;;;9.40;79.63;102465.22;5054670;28;20021;-78
2022/05/06 04:43:07;;;;;;;5.10;2.97;;;;;;;9.42;78.88;102473.88;5054435;28;20071;-78
2022/05/06 04:45:40;;;;;;;5.07;3.00;;;;;;;9.48;79.51;102475.69;5064173;28;20054;-78
2022/05/06 04:48:07;;;;;;;4.45;2.72;;;;;;;9.50;80.05;102477.47;5074552;28;20021;-78
2022/05/06 04:50:36;;;;;;;4.65;3.00;;;;;;;9.51;79.28;102486.09;5074452;28;20016;-78
2022/05/06 04:53:02;;;;;;;3.55;2.45;;;;;;;9.54;79.16;102483.56;5073642;28;20370;-78
2022/05/06 04:55:27;;;;;;;5.07;3.03;;;;;;;9.53;80.81;102487.88;5074223;28;20021;-78
2022/05/06 04:57:53;;;;;;;5.03;3.10;;;;;;;9.53;78.94;102485.28;5073766;28;20024;-78
2022/05/06 05:00:21;;;;;;;5.40;3.13;;;;;;;9.55;79.13;102481.00;5073218;28;20039;-78
2022/05/06 05:02:47;;;;;;;5.25;3.00;;;;;;;9.59;80.09;102494.88;5073826;28;20021;-78
2022/05/06 05:05:12;;;;;;;5.27;3.13;;;;;;;9.58;79.21;102490.53;5068983;28;20091;-78
2022/05/06 05:07:38;;;;;;;6.27;3.57;;;;;;;9.54;80.54;102499.13;5053150;28;20036;-78
2022/05/06 05:10:03;;;;;;;5.70;3.20;;;;;;;9.53;80.12;102494.78;5053961;28;20047;-78
2022/05/06 05:12:29;;;;;;;3.83;2.67;;;;;;;9.54;80.13;102501.72;5053816;28;20070;-78
2022/05/06 05:14:54;;;;;;;3.43;2.30;;;;;;;9.52;80.03;102506.84;5050569;28;20025;-78
2022/05/06 05:17:19;;;;;;;4.10;2.50;;;;;;;9.54;79.05;102504.31;5053773;28;20068;-78
2022/05/06 05:19:45;;;;;;;5.13;3.07;;;;;;;9.54;80.42;102514.69;5052936;28;20021;-78
2022/05/06 05:22:10;;;;;;;5.57;3.10;;;;;;;9.52;79.25;102511.19;5053976;28;20025;-78
2022/05/06 05:24:35;;;;;;;4.40;2.63;;;;;;;9.53;78.90;102523.31;5055839;28;20044;-78
2022/05/06 05:27:01;;;;;;;5.47;3.10;;;;;;;9.53;80.81;102512.94;5072368;28;20025;-78
2022/05/06 05:29:26;;;;;;;5.80;3.17;;;;;;;9.51;80.22;102518.09;5073357;28;20107;-78
2022/05/06 05:31:52;;;;;;;5.13;3.07;;;;;;;9.50;80.59;102518.06;5073382;28;20024;-78
2022/05/06 05:34:17;;;;;;;5.73;3.10;;;;;;;9.48;80.71;102511.97;5072314;28;20036;-78
2022/05/06 05:36:45;;;;;;;4.83;3.13;;;;;;;9.48;80.19;102501.59;5072668;28;20822;-78
2022/05/06 05:39:13;;;;;;;4.20;2.60;;;;;;;9.50;80.29;102510.28;5073416;28;20020;-78
2022/05/06 05:41:42;;;;;;;3.38;2.22;;;;;;;9.50;80.03;102516.34;5072039;28;20107;-78
2022/05/06 05:49:35;;;;;;;3.42;2.13;;;;;;;9.67;79.28;102523.50;5052408;28;20087;-77
2022/05/06 05:52:00;;;;;;;5.87;2.97;;;;;;;9.71;79.40;102525.31;5053124;28;20501;-77
2022/05/06 05:54:29;;;;;;;3.90;2.70;;;;;;;9.74;80.59;102525.34;5053089;28;20036;-77
2022/05/06 05:56:55;;;;;;;9.90;4.47;;;;;;;9.72;83.16;102529.66;5052141;28;20033;-78
2022/05/06 05:59:22;;;;;;;17.65;7.88;;;;;;;9.48;85.49;102518.03;5053121;28;20021;-79
2022/05/06 06:01:49;;;;;;;17.77;8.65;;;;;;;9.33;85.56;102522.97;5053614;28;20051;-80
2022/05/06 06:04:15;;;;;;;14.07;6.57;;;;;;;9.30;83.29;102525.50;5053809;28;20029;-80
2022/05/06 06:06:41;;;;;;;14.77;6.77;;;;;;;9.27;85.00;102519.44;5052767;28;20104;-80
2022/05/06 06:09:07;;;;;;;11.60;5.55;;;;;;;9.29;83.30;102509.09;5052127;28;20075;-76
2022/05/06 06:11:32;;;;;;;10.60;5.07;;;;;;;9.38;84.18;102508.38;5052945;28;20465;-75
2022/05/06 06:14:02;;;;;;;8.70;4.20;;;;;;;9.47;83.19;102516.28;5052087;28;20052;-77
2022/05/06 06:16:28;;;;;;;6.97;3.70;;;;;;;9.55;81.59;102508.66;5061091;28;20078;-76
2022/05/06 06:18:55;;;;;;;5.40;3.30;;;;;;;9.65;81.78;102517.41;5072510;28;20076;-76
2022/05/06 06:21:20;;;;;;;;;;;;;;;9.70;82.41;102514.06;5073246;28;20040;-77
2022/05/06 06:23:48;;;;;;;5.43;3.10;;;;;;;9.73;81.81;102510.66;5071956;28;20368;-76
2022/05/06 06:26:13;;;;;;;9.60;4.43;;;;;;;9.77;83.61;102506.38;5073107;28;20046;-77
2022/05/06 06:28:39;;;;;;;10.50;5.17;;;;;;;9.77;84.12;102512.44;5072535;28;20031;-77
2022/05/06 06:31:04;;;;;;;7.83;4.37;;;;;;;9.79;83.09;102510.72;5058622;28;20025;-77
2022/05/06 06:33:29;;;;;;;7.67;4.17;;;;;;;9.84;81.04;102510.78;5052804;28;20025;-77
2022/05/06 06:35:54;;;;;;;6.27;3.60;;;;;;;9.95;80.96;102513.56;5052354;28;20036;-77
2022/05/06 06:38:20;;;;;;;6.93;3.97;;;;;;;10.06;82.55;102509.41;5051835;28;20027;-78
2022/05/06 06:40:45;;;;;;;8.57;4.50;;;;;;;10.09;81.30;102511.16;5052332;28;20055;-77
2022/05/06 06:43:10;;;;;;;7.00;3.97;;;;;;;10.14;80.60;102507.75;5052606;28;20057;-77
2022/05/06 06:45:37;;;;;;;7.83;4.20;;;;;;;10.22;81.31;102512.16;5053317;28;20079;-77
2022/05/06 06:48:03;;;;;;;5.75;3.22;;;;;;;10.29;80.79;102512.28;5076218;28;20064;-82
2022/05/06 06:50:28;;;;;;;8.63;4.60;;;;;;;10.39;82.52;102509.81;5075854;28;20056;-82
2022/05/06 06:52:55;;;;;;;12.47;5.93;;;;;;;10.37;81.99;102520.16;5075392;28;20115;-82
2022/05/06 06:55:21;;;;;;;;;;;;;;;10.34;81.80;102526.19;5076958;28;20044;-82
2022/05/06 06:57:46;;;;;;;10.97;5.20;;;;;;;10.41;80.67;102524.59;5075310;28;20376;-82
2022/05/06 07:00:12;;;;;;;7.53;4.07;;;;;;;10.53;81.15;102523.00;5075946;28;20025;-82
2022/05/06 07:02:39;;;;;;;6.78;3.63;;;;;;;10.64;80.35;102532.63;5076169;28;20024;-81
2022/05/06 07:05:04;;;;;;;6.35;3.47;;;;;;;10.69;81.18;102522.31;5074699;28;20032;-82
2022/05/06 07:12:58;;;;;;;5.03;2.88;;;;;;;11.06;80.19;102543.47;5075112;28;20051;-82
2022/05/06 07:15:23;;;;;;;3.30;2.50;;;;;;;11.16;79.42;102541.81;5076061;28;20025;-79
2022/05/06 07:17:52;;;;;;;3.93;2.43;;;;;;;11.25;80.05;102541.03;5075747;28;20144;-79
2022/05/06 07:20:17;;;;;;;8.07;3.63;;;;;;;11.27;81.35;102542.78;5067709;28;20111;-78
2022/05/06 07:22:42;;;;;;;9.27;4.40;;;;;;;11.23;81.04;102551.44;5056162;28;20107;-79
2022/05/06 07:25:11;;;;;;;11.53;5.23;;;;;;;11.25;80.97;102549.72;5056175;28;20021;-77
2022/05/06 07:27:36;;;;;;;11.45;5.20;;;;;;;11.28;80.88;102554.06;5054887;28;20143;-77
2022/05/06 07:30:03;;;;;;;9.80;4.77;;;;;;;11.29;80.56;102555.81;5055249;28;20118;-78
2022/05/06 07:32:31;;;;;;;8.77;4.20;;;;;;;11.38;80.44;102562.81;5055623;28;20025;-78
2022/05/06 07:34:56;;;;;;;14.10;5.70;;;;;;;11.43;80.50;102564.59;5054740;28;20056;-78
2022/05/06 07:37:22;;;;;;;9.47;4.50;;;;;;;11.46;79.72;102570.69;5056807;28;20126;-77
2022/05/06 07:39:47;;;;;;;10.13;4.57;;;;;;;11.53;79.82;102569.91;5055269;28;20029;-78
2022/05/06 07:42:12;;;;;;;8.07;4.00;;;;;;;11.56;79.18;102569.91;5055018;28;20029;-77
2022/05/06 07:44:38;;;;;;;12.40;4.60;;;;;;;11.59;80.12;102573.41;5055923;28;20346;-78
2022/05/06 07:47:03;;;;;;;16.40;6.93;;;;;;;11.53;79.74;102581.16;5055567;28;20108;-78
2022/05/06 07:49:29;;;;;;;24.13;12.77;;;;;;;11.41;80.74;102583.63;5054847;28;20017;-78
2022/05/06 07:51:54;;;;;;;25.50;13.60;;;;;;;11.30;83.37;102580.06;5061362;28;20029;-78
2022/05/06 07:54:19;;;;;;;28.17;15.37;;;;;;;11.16;82.12;102583.41;5075562;28;20021;-78
2022/05/06 07:56:45;;;;;;;32.70;18.33;;;;;;;11.05;84.45;102587.59;5074232;28;20032;-78
2022/05/06 07:59:16;;;;;;;32.70;18.87;;;;;;;10.87;85.16;102583.06;5074338;28;20028;-77
2022/05/06 08:04:35;;;;;;;24.90;13.23;;;;;;;10.98;83.50;102586.66;5075555;28;20079;-78
2022/05/06 08:07:01;;;;;;;25.00;13.27;;;;;;;11.07;82.81;102588.50;5075099;28;20025;-78
2022/05/06 08:09:27;;;;;;;21.63;10.20;;;;;;;11.20;82.47;102590.38;5070079;28;20162;-78
2022/05/06 08:11:52;;;;;;;19.83;8.93;;;;;;;11.37;82.29;102589.69;5054942;28;20119;-77
2022/05/06 08:14:19;;;;;;;19.97;9.13;;;;;;;11.49;82.13;102589.78;5055200;28;20021;-78
2022/05/06 08:16:45;;;;;;;19.35;8.60;;;;;;;11.55;81.28;102594.16;5053978;28;20504;-78
2022/05/06 08:19:11;;;;;;;24.83;12.75;;;;;;;11.52;82.91;102591.56;5055209;28;20028;-78
2022/05/06 08:21:36;;;;;;;22.53;11.53;;;;;;;11.51;81.79;102593.25;5054847;28;20017;-78
2022/05/06 08:24:05;;;;;;;20.53;9.67;;;;;;;11.60;82.22;102595.06;5054274;28;20377;-78
2022/05/06 08:26:31;;;;;;;19.02;8.70;;;;;;;11.72;81.54;102592.59;5054800;28;20026;-78
2022/05/06 08:28:56;;;;;;;19.37;9.07;;;;;;;11.82;80.77;102585.69;5057262;28;20118;-78
2022/05/06 08:31:21;;;;;;;21.27;10.50;;;;;;;11.99;82.17;102585.84;5074204;28;20107;-78
2022/05/06 08:33:47;;;;;;;20.67;9.87;;;;;;;12.07;80.82;102580.72;5074791;28;20031;-77
2022/05/06 08:36:12;;;;;;;20.33;9.20;;;;;;;12.20;80.02;102584.28;5074676;28;20020;-77
2022/05/06 08:38:37;;;;;;;19.77;8.90;;;;;;;12.39;79.97;102580.00;5073726;28;20021;-77
2022/05/06 08:41:04;;;;;;;20.37;9.53;;;;;;;12.52;79.42;102579.22;5074354;28;20021;-77
2022/05/06 08:43:29;;;;;;;25.58;13.82;;;;;;;12.63;79.19;102578.38;5075065;28;20090;-77
2022/05/06 08:51:31;;;;;;;20.45;9.75;;;;;;;12.91;79.20;102561.09;5040866;28;20035;-77
2022/05/06 08:53:57;;;;;;;19.20;9.50;;;;;;;13.05;79.03;102563.75;5054357;28;20120;-76
2022/05/06 08:56:22;;;;;;;16.37;7.57;;;;;;;13.21;79.16;102562.06;5054160;28;20108;-77
2022/05/06 08:58:47;;;;;;;20.10;10.13;;;;;;;13.29;77.88;102560.31;5053309;28;20025;-77
2022/05/06 09:01:13;;;;;;;18.80;9.13;;;;;;;13.38;77.50;102561.19;5054120;28;20424;-77
2022/05/06 09:03:47;;;;;;;25.73;14.40;;;;;;;13.41;76.67;102564.69;5053678;28;20066;-77
2022/05/06 09:06:27;;;;;;;22.98;12.30;;;;;;;13.37;77.31;102567.25;5057459;28;20036;-77
2022/05/06 09:08:55;;;;;;;21.58;11.10;;;;;;;13.47;77.41;102563.81;5073458;28;20044;-77
2022/05/06 09:14:06;;;;;;;22.00;11.45;;;;;;;13.89;75.43;102571.63;5073498;28;20543;-76
2022/05/06 09:16:40;;;;;;;21.45;11.48;;;;;;;14.12;75.24;102565.47;5073592;28;20105;-78
2022/05/06 09:19:25;;;;;;;18.13;8.52;;;;;;;14.40;75.99;102560.19;5072884;28;20552;-77
2022/05/06 09:22:17;;;;;;;19.13;8.55;;;;;;;14.64;75.07;102561.81;5073668;28;20024;-77
2022/05/06 09:24:47;;;;;;;17.23;8.05;;;;;;;14.77;74.30;102560.91;5073625;28;20028;-77
2022/05/06 09:27:21;;;;;;;16.25;7.25;;;;;;;14.88;73.58;102563.44;5072880;28;20024;-77
2022/05/06 09:29:48;;;;;;;23.85;13.70;;;;;;;15.02;72.10;102558.16;5071098;28;20031;-77
2022/05/06 09:32:24;;;;;;;25.38;14.68;;;;;;;15.02;72.84;102559.88;5053785;28;20044;-76
2022/05/06 09:34:58;;;;;;;23.10;12.68;;;;;;;14.94;72.87;102552.97;5052982;28;20025;-77
2022/05/06 09:37:38;;;;;;;19.45;9.40;;;;;;;15.04;73.56;102560.75;5053270;28;20083;-77
2022/05/06 09:40:06;;;;;;;16.17;7.50;;;;;;;15.25;73.32;102555.38;5052948;28;20040;-77
2022/05/06 09:42:32;;;;;;;17.63;8.10;;;;;;;15.47;72.65;102547.34;5053477;28;20064;-77
2022/05/06 09:44:58;;;;;;;17.55;8.32;;;;;;;15.70;72.58;102543.66;5052982;28;20029;-77
2022/05/06 09:47:25;;;;;;;20.02;9.98;;;;;;;15.83;70.68;102536.53;5052430;28;20033;-77
2022/05/06 09:49:52;;;;;;;19.67;9.45;;;;;;;15.99;71.55;102540.78;5068879;28;20036;-77
2022/05/06 09:52:17;;;;;;;18.48;8.88;;;;;;;16.15;70.53;102538.84;5073378;28;20094;-77
2022/05/06 09:54:44;;;;;;;18.40;9.03;;;;;;;16.32;68.56;102550.88;5072468;28;20020;-77
2022/05/06 09:57:10;;;;;;;;;;;;;;;16.42;70.21;102549.88;5073772;28;20059;-77
2022/05/06 09:59:36;;;;;;;17.33;8.02;;;;;;;16.59;69.68;102543.53;5073288;28;19965;-77
2022/05/06 10:02:02;;;;;;;15.63;7.30;;;;;;;16.74;69.82;102538.09;5071985;28;20457;-77
2022/05/06 10:04:27;;;;;;;16.27;7.13;;;;;;;16.95;69.25;102541.31;5072860;28;20078;-77
2022/05/06 10:06:56;;;;;;;17.87;8.67;;;;;;;17.07;66.22;102541.13;5072811;28;20032;-77
2022/05/06 10:09:25;;;;;;;15.57;7.10;;;;;;;17.19;68.73;102542.69;5071492;28;20093;-77
2022/05/06 10:11:52;;;;;;;13.65;6.78;;;;;;;17.39;68.29;102542.38;5072780;28;20052;-77
2022/05/06 10:14:17;;;;;;;13.15;6.18;;;;;;;17.59;67.22;102538.53;5072853;28;20097;-77
2022/05/06 10:16:43;;;;;;;13.00;6.47;;;;;;;17.74;65.40;102537.38;5060370;28;20393;-77
2022/05/06 10:19:37;;;;;;;13.80;6.40;;;;;;;17.84;65.05;102528.47;5360214;22;20095;-78
2022/05/06 10:22:03;;;;;;;17.88;8.65;;;;;;;17.94;62.47;102518.63;5029652;28;20100;-77
2022/05/06 10:24:39;;;;;;;18.87;9.07;;;;;;;17.93;64.05;102521.28;5032450;28;20045;-77
2022/05/06 10:27:23;;;;;;;;;;;;;;;18.09;65.40;102521.88;5033380;28;20080;-77
2022/05/06 10:32:56;;;;;;;17.95;8.68;;;;;;;18.20;59.55;102520.75;5031806;28;20055;-77
2022/05/06 10:35:37;;;;;;;20.33;9.98;;;;;;;17.98;62.63;102522.97;5032725;28;20047;-77
2022/05/06 10:38:15;;;;;;;15.50;7.43;;;;;;;18.19;63.91;102519.03;5032313;28;20018;-77
2022/05/06 10:41:21;;;;;;;20.90;11.30;;;;;;;18.37;61.44;102515.13;5032625;28;20030;-77
2022/05/06 10:43:53;;;;;;;18.05;9.00;;;;;;;18.50;62.77;102513.13;5031172;28;20032;-77
2022/05/06 10:46:39;;;;;;;17.33;8.45;;;;;;;18.69;62.45;102504.81;5021244;28;20033;-77
2022/05/06 10:49:38;;;;;;;12.88;6.45;;;;;;;19.00;60.56;102509.38;5032988;28;20026;-81
2022/05/06 10:52:15;;;;;;;11.85;5.80;;;;;;;19.19;56.41;102501.88;5031975;28;20029;-80
2022/05/06 10:54:54;;;;;;;17.05;8.18;;;;;;;19.02;54.69;102501.47;5032220;28;20037;-81
2022/05/06 10:57:21;;;;;;;15.45;7.60;;;;;;;18.92;58.83;102496.38;5031771;28;20456;-80
2022/05/06 10:59:55;;;;;;;;;;;;;;;19.01;54.71;102508.47;5032952;28;20052;-80
2022/05/06 11:02:23;;;;;;;18.33;8.82;;;;;;;18.95;55.02;102500.75;5032767;28;19913;-79
2022/05/06 11:04:51;;;;;;;19.73;9.73;;;;;;;18.59;55.37;102491.00;5031425;28;20034;-79
2022/05/06 11:07:19;;;;;;;16.20;7.60;;;;;;;18.79;58.38;102494.97;5032550;28;20469;-79
2022/05/06 11:09:45;;;;;;;14.88;7.00;;;;;;;19.11;57.81;102493.34;5032255;28;20524;-79
2022/05/06 11:12:44;;;;;;;19.23;9.93;;;;;;;19.16;54.44;102488.81;5031441;28;20082;-79
2022/05/06 11:15:17;;;;;;;17.85;9.18;;;;;;;19.10;57.31;102497.72;5032310;28;20026;-79
2022/05/06 11:17:44;;;;;;;15.30;7.07;;;;;;;19.35;58.70;102490.97;5032570;28;20051;-79
2022/05/06 11:20:31;;;;;;;10.32;5.13;;;;;;;19.73;58.37;102481.16;5031577;28;20120;-83
2022/05/06 11:23:02;;;;;;;8.45;4.50;;;;;;;20.07;56.73;102474.97;5025075;28;20113;-79
2022/05/06 11:25:33;;;;;;;7.55;3.78;;;;;;;20.33;56.85;102482.09;5012022;28;20121;-79
2022/05/06 11:28:01;;;;;;;6.38;3.90;;;;;;;20.61;55.23;102480.34;5012545;28;20034;-80
2022/05/06 11:30:32;;;;;;;16.45;7.53;;;;;;;20.68;52.05;102479.28;5012921;28;20042;-79
2022/05/06 11:33:03;;;;;;;15.52;7.70;;;;;;;20.51;50.50;102472.75;5012195;28;20066;-79
2022/05/06 11:35:37;;;;;;;15.02;7.30;;;;;;;20.58;53.31;102469.94;5016522;28;20130;-80
2022/05/06 11:38:03;;;;;;;10.93;5.50;;;;;;;20.76;52.10;102469.34;5016136;28;20034;-80
2022/05/06 11:42:56;;;;;;;8.93;4.22;;;;;;;21.06;52.66;102466.59;5016197;28;20803;-80
2022/05/06 11:48:06;;;;;;;7.13;3.80;;;;;;;21.47;52.51;102459.94;5024034;28;20045;-80
2022/05/06 11:50:36;;;;;;;4.88;3.10;;;;;;;21.68;52.63;102458.31;5035669;28;20105;-80
2022/05/06 11:53:14;;;;;;;5.85;3.60;;;;;;;21.93;51.12;102458.31;5035785;28;20057;-80
2022/05/06 11:55:44;;;;;;;4.05;3.08;;;;;;;22.12;50.35;102449.66;5034570;28;20030;-79
2022/05/06 11:58:12;;;;;;;11.82;5.65;;;;;;;22.09;46.94;102447.13;5035745;28;20025;-79
2022/05/06 12:00:41;;;;;;;9.30;4.95;;;;;;;22.01;49.94;102452.72;5034579;28;20473;-79
2022/05/06 12:03:10;;;;;;;6.20;3.47;;;;;;;22.14;50.09;102440.72;5035705;28;20040;-80
2022/05/06 12:05:37;;;;;;;6.65;3.65;;;;;;;22.27;44.52;102445.53;5035682;28;20458;-79